Time;durP1;ratioP1;P1;durP2;ratioP2;P2;SDS_P1;SDS_P2;PMS_P1;PMS_P2;Temp;Humidity;BMP_temperature;BMP_pressure;BME280_temperature;BME280_humidity;BME280_pressure;Samples;Min_cycle;Max_cycle;Signal;HPM_P1;HPM_P2
2021/01/23 00:02:14;;;;;;;1.60;1.50;;;2.30;98.20;;;;;;4998808;28;20459;-75
2021/01/23 00:04:41;;;;;;;1.70;1.60;;;2.30;98.20;;;;;;4995475;28;20525;-74
2021/01/23 00:07:07;;;;;;;1.67;1.50;;;2.30;98.20;;;;;;4997338;28;20476;-75
2021/01/23 00:09:34;;;;;;;1.67;1.50;;;2.30;98.20;;;;;;5000514;28;20505;-76
2021/01/23 00:12:01;;;;;;;1.60;1.50;;;2.30;98.20;;;;;;4994327;28;20476;-75
2021/01/23 00:14:27;;;;;;;1.80;1.70;;;2.30;98.20;;;;;;5002186;28;20453;-76
2021/01/23 00:16:54;;;;;;;1.60;1.50;;;2.20;98.20;;;;;;4997515;28;20492;-76
2021/01/23 00:19:23;;;;;;;1.70;1.50;;;2.20;98.20;;;;;;4995223;28;20531;-76
2021/01/23 00:21:49;;;;;;;1.60;1.50;;;2.20;98.20;;;;;;5000100;28;20738;-75
2021/01/23 00:24:15;;;;;;;1.70;1.60;;;2.20;98.20;;;;;;5008097;28;20484;-75
2021/01/23 00:26:44;;;;;;;1.60;1.50;;;2.20;98.20;;;;;;4996243;28;20810;-76
2021/01/23 00:29:12;;;;;;;1.70;1.50;;;2.20;98.20;;;;;;5005163;28;20496;-76
2021/01/23 00:31:38;;;;;;;1.63;1.50;;;2.20;98.20;;;;;;5007662;28;20492;-76
2021/01/23 00:34:05;;;;;;;1.70;1.60;;;2.20;98.20;;;;;;4995544;28;20466;-75
2021/01/23 00:36:33;;;;;;;1.73;1.63;;;2.10;98.20;;;;;;4999301;28;20472;-76
2021/01/23 00:39:00;;;;;;;1.70;1.60;;;2.10;98.20;;;;;;5008480;28;20448;-76
2021/01/23 00:41:27;;;;;;;1.60;1.40;;;2.10;98.20;;;;;;5013486;28;20444;-73
2021/01/23 00:43:55;;;;;;;1.80;1.70;;;2.10;98.20;;;;;;5006145;28;20554;-74
2021/01/23 00:46:22;;;;;;;1.60;1.50;;;2.10;98.20;;;;;;4997200;28;20473;-75
2021/01/23 00:48:48;;;;;;;1.70;1.60;;;2.10;98.20;;;;;;4994942;28;20471;-76
2021/01/23 00:51:15;;;;;;;1.70;1.50;;;2.00;98.20;;;;;;4993530;28;20464;-76
2021/01/23 00:53:44;;;;;;;1.70;1.50;;;2.00;98.20;;;;;;4989768;28;20492;-75
2021/01/23 00:56:11;;;;;;;1.70;1.60;;;2.00;98.20;;;;;;4993748;28;20579;-74
2021/01/23 00:58:38;;;;;;;1.63;1.50;;;2.00;98.20;;;;;;4994873;28;20484;-76
2021/01/23 01:01:06;;;;;;;1.63;1.50;;;2.00;98.20;;;;;;4996451;28;20866;-76
2021/01/23 01:03:33;;;;;;;1.60;1.40;;;2.00;98.20;;;;;;5035576;23;20935;-76
2021/01/23 01:05:59;;;;;;;1.60;1.50;;;2.00;98.20;;;;;;5037069;28;20509;-76
2021/01/23 01:08:26;;;;;;;1.60;1.50;;;2.00;98.20;;;;;;5030089;28;20463;-76
2021/01/23 01:10:54;;;;;;;1.70;1.60;;;2.00;98.20;;;;;;5023880;28;20467;-75
2021/01/23 01:13:22;;;;;;;1.67;1.57;;;2.00;98.20;;;;;;5011990;28;20464;-76
2021/01/23 01:15:49;;;;;;;1.70;1.50;;;2.10;98.20;;;;;;5006240;28;20485;-75
2021/01/23 01:18:16;;;;;;;1.63;1.50;;;2.10;98.20;;;;;;5012651;28;20469;-76
2021/01/23 01:20:42;;;;;;;2.80;2.60;;;2.10;98.20;;;;;;5013920;28;20661;-75
2021/01/23 01:23:09;;;;;;;1.70;1.60;;;2.10;98.20;;;;;;5012146;28;20589;-76
2021/01/23 01:25:36;;;;;;;1.63;1.50;;;2.10;98.20;;;;;;5017041;28;20530;-75
2021/01/23 01:28:04;;;;;;;1.60;1.40;;;2.10;98.20;;;;;;5023182;28;20457;-76
2021/01/23 01:30:30;;;;;;;1.70;1.50;;;2.10;98.20;;;;;;5012746;28;20570;-77
2021/01/23 01:32:57;;;;;;;1.70;1.60;;;2.10;98.20;;;;;;5013206;28;20534;-76
2021/01/23 01:35:23;;;;;;;1.80;1.70;;;2.10;98.20;;;;;;5022127;28;20529;-76
2021/01/23 01:37:50;;;;;;;1.67;1.40;;;2.10;98.20;;;;;;4999814;28;20465;-76
2021/01/23 01:40:17;;;;;;;1.63;1.50;;;2.10;98.20;;;;;;5000597;28;20488;-76
2021/01/23 01:42:44;;;;;;;1.60;1.50;;;2.20;98.20;;;;;;5020150;28;20460;-75
2021/01/23 01:45:13;;;;;;;1.63;1.50;;;2.10;98.20;;;;;;5024483;28;20488;-76
2021/01/23 01:47:40;;;;;;;1.70;1.60;;;2.20;98.20;;;;;;5000075;28;20759;-76
2021/01/23 01:50:07;;;;;;;1.60;1.40;;;2.20;98.20;;;;;;5006402;28;20492;-77
2021/01/23 01:52:34;;;;;;;1.60;1.50;;;2.20;98.20;;;;;;5015314;28;20474;-76
2021/01/23 01:55:01;;;;;;;1.67;1.50;;;2.30;98.20;;;;;;5024870;28;20451;-75
2021/01/23 01:57:28;;;;;;;1.60;1.47;;;2.30;98.20;;;;;;5005435;28;20495;-76
2021/01/23 01:59:54;;;;;;;1.67;1.50;;;2.30;98.20;;;;;;5015900;28;20531;-76
2021/01/23 02:02:44;;;;;;;1.63;1.50;;;2.30;98.20;;;;;;5015948;28;20464;-76
2021/01/23 02:05:17;;;;;;;1.70;1.53;;;2.30;98.20;;;;;;5008450;28;20519;-76
2021/01/23 02:07:50;;;;;;;1.70;1.60;;;2.30;98.20;;;;;;5000714;28;20478;-74
2021/01/23 02:10:27;;;;;;;1.80;1.70;;;2.30;98.20;;;;;;5016793;28;20473;-76
2021/01/23 02:13:09;;;;;;;1.60;1.50;;;2.30;98.20;;;;;;5014002;28;20457;-76
2021/01/23 02:15:42;;;;;;;1.73;1.63;;;2.40;98.20;;;;;;5012443;28;20467;-74
2021/01/23 02:18:12;;;;;;;1.63;1.40;;;2.40;98.20;;;;;;5015295;28;20496;-75
2021/01/23 02:20:56;;;;;;;16.97;10.57;;;2.40;98.20;;;;;;5010964;28;20484;-75
2021/01/23 02:23:27;;;;;;;1.60;1.50;;;2.40;98.20;;;;;;5024522;28;20461;-76
2021/01/23 02:26:01;;;;;;;1.70;1.50;;;2.40;98.20;;;;;;5020163;28;20518;-75
2021/01/23 02:28:45;;;;;;;1.70;1.50;;;2.40;98.20;;;;;;5015901;28;20470;-76
2021/01/23 02:31:16;;;;;;;1.70;1.60;;;2.40;98.20;;;;;;5016642;28;20482;-76
2021/01/23 02:33:46;;;;;;;1.67;1.50;;;2.40;98.20;;;;;;5014347;28;20463;-76
2021/01/23 02:36:13;;;;;;;1.70;1.60;;;2.40;98.20;;;;;;5019007;28;20485;-75
2021/01/23 02:38:42;;;;;;;1.70;1.50;;;2.40;98.20;;;;;;5016570;28;20476;-76
2021/01/23 02:41:12;;;;;;;1.70;1.50;;;2.40;98.20;;;;;;5025017;28;20488;-75
2021/01/23 02:43:44;;;;;;;1.70;1.53;;;2.40;98.20;;;;;;5013570;28;20492;-75
2021/01/23 02:46:13;;;;;;;1.70;1.60;;;2.40;98.20;;;;;;5008519;28;20468;-77
2021/01/23 02:48:40;;;;;;;1.60;1.50;;;2.40;98.20;;;;;;5017898;28;20849;-76
2021/01/23 02:51:11;;;;;;;1.70;1.53;;;2.30;98.20;;;;;;5009468;28;20840;-77
2021/01/23 02:53:39;;;;;;;1.73;1.63;;;2.30;98.20;;;;;;5008138;28;20460;-76
2021/01/23 02:56:09;;;;;;;1.67;1.47;;;2.30;98.20;;;;;;5015721;28;20460;-76
2021/01/23 02:58:37;;;;;;;1.70;1.50;;;2.30;98.20;;;;;;5013683;28;20766;-76
2021/01/23 03:01:05;;;;;;;1.70;1.50;;;2.30;98.20;;;;;;5010189;28;20483;-75
2021/01/23 03:03:33;;;;;;;1.70;1.60;;;2.30;98.20;;;;;;5015797;28;20952;-76
2021/01/23 03:06:04;;;;;;;1.63;1.50;;;2.30;98.20;;;;;;5009840;28;20456;-76
2021/01/23 03:08:31;;;;;;;1.63;1.40;;;2.30;98.20;;;;;;5007750;28;20475;-75
2021/01/23 03:10:58;;;;;;;1.70;1.60;;;2.20;98.20;;;;;;5020873;28;20487;-76
2021/01/23 03:13:25;;;;;;;1.63;1.47;;;2.30;98.20;;;;;;5027706;28;20463;-76
2021/01/23 03:15:52;;;;;;;1.67;1.50;;;2.20;98.20;;;;;;5011773;28;20457;-76
2021/01/23 03:18:18;;;;;;;1.67;1.50;;;2.20;98.20;;;;;;5000947;28;20460;-76
2021/01/23 03:20:46;;;;;;;1.60;1.50;;;2.20;98.20;;;;;;5015281;28;20503;-75
2021/01/23 03:23:12;;;;;;;1.70;1.60;;;2.20;98.20;;;;;;5014794;28;20515;-75
2021/01/23 03:25:39;;;;;;;1.63;1.47;;;2.20;98.20;;;;;;5015085;28;20496;-76
2021/01/23 03:28:05;;;;;;;1.60;1.50;;;2.20;98.20;;;;;;5027371;23;20878;-77
2021/01/23 03:30:32;;;;;;;1.70;1.50;;;2.20;98.20;;;;;;5030471;28;20483;-75
2021/01/23 03:32:59;;;;;;;1.63;1.40;;;2.20;98.20;;;;;;5035841;28;20471;-77
2021/01/23 03:35:26;;;;;;;1.63;1.40;;;2.20;98.20;;;;;;5034413;28;20894;-77
2021/01/23 03:37:53;;;;;;;1.60;1.50;;;2.20;98.20;;;;;;5034241;28;20829;-77
2021/01/23 03:40:20;;;;;;;1.60;1.43;;;2.20;98.20;;;;;;5032482;28;20725;-76
2021/01/23 03:42:47;;;;;;;1.60;1.40;;;2.20;98.20;;;;;;5032858;28;20470;-77
2021/01/23 03:45:14;;;;;;;1.67;1.50;;;2.20;98.20;;;;;;5036640;28;20477;-76
2021/01/23 03:47:40;;;;;;;1.67;1.50;;;2.30;98.20;;;;;;5036326;28;20478;-77
2021/01/23 03:50:09;;;;;;;1.70;1.53;;;2.30;98.20;;;;;;5037480;28;20487;-77
2021/01/23 03:52:36;;;;;;;1.60;1.40;;;2.30;98.20;;;;;;5041730;28;20455;-76
2021/01/23 03:55:05;;;;;;;1.60;1.50;;;2.40;98.20;;;;;;5040390;28;20824;-75
2021/01/23 03:57:35;;;;;;;1.70;1.50;;;2.40;98.20;;;;;;5037725;28;21073;-77
2021/01/23 04:00:02;;;;;;;1.63;1.40;;;2.40;98.20;;;;;;5040074;28;20665;-76
2021/01/23 04:02:28;;;;;;;1.60;1.50;;;2.50;98.20;;;;;;5041468;28;20459;-76
2021/01/23 04:04:54;;;;;;;1.63;1.40;;;2.50;98.20;;;;;;5041652;28;20475;-76
2021/01/23 04:07:21;;;;;;;1.63;1.40;;;2.60;98.20;;;;;;5037534;28;20455;-76
2021/01/23 04:09:47;;;;;;;1.60;1.47;;;2.60;98.20;;;;;;5036274;28;20479;-76
2021/01/23 04:12:15;;;;;;;1.67;1.50;;;2.60;98.20;;;;;;5038288;28;20521;-76
2021/01/23 04:14:41;;;;;;;1.63;1.50;;;2.70;98.20;;;;;;5038370;28;20459;-75
2021/01/23 04:17:10;;;;;;;1.63;1.50;;;2.80;98.20;;;;;;5039879;28;20474;-76
2021/01/23 04:19:36;;;;;;;1.60;1.40;;;2.80;98.20;;;;;;5039032;28;20510;-75
2021/01/23 04:22:03;;;;;;;1.70;1.60;;;2.80;98.20;;;;;;5035997;28;20886;-76
2021/01/23 04:24:29;;;;;;;1.60;1.40;;;2.80;98.20;;;;;;5042708;28;20472;-76
2021/01/23 04:26:56;;;;;;;1.60;1.40;;;2.80;98.20;;;;;;5036091;28;20475;-77
2021/01/23 04:29:23;;;;;;;1.70;1.57;;;2.90;98.20;;;;;;5032049;28;20640;-76
2021/01/23 04:31:50;;;;;;;1.70;1.50;;;2.90;98.20;;;;;;5032737;28;20471;-76
2021/01/23 04:34:16;;;;;;;1.60;1.40;;;2.90;98.20;;;;;;5030673;28;20491;-76
2021/01/23 04:36:42;;;;;;;1.60;1.37;;;2.90;98.20;;;;;;5031634;28;20462;-76
2021/01/23 04:39:09;;;;;;;1.70;1.60;;;3.00;98.20;;;;;;5031012;28;20502;-77
2021/01/23 04:41:35;;;;;;;1.63;1.40;;;3.00;98.20;;;;;;5035289;28;20455;-76
2021/01/23 04:44:02;;;;;;;1.67;1.50;;;3.10;98.20;;;;;;5033342;28;20569;-76
2021/01/23 04:46:29;;;;;;;1.70;1.50;;;3.10;98.20;;;;;;5038461;28;20889;-77
2021/01/23 04:48:57;;;;;;;1.70;1.50;;;3.10;98.20;;;;;;5033960;28;20451;-76
2021/01/23 04:51:25;;;;;;;4.33;4.03;;;3.10;98.20;;;;;;5035356;28;21131;-77
2021/01/23 04:53:53;;;;;;;1.70;1.57;;;3.20;98.20;;;;;;5034709;28;20495;-78
2021/01/23 04:56:19;;;;;;;1.70;1.40;;;3.20;98.20;;;;;;5031151;28;20590;-77
2021/01/23 04:58:46;;;;;;;1.60;1.30;;;3.20;98.20;;;;;;5028530;28;20467;-76
2021/01/23 05:01:13;;;;;;;1.70;1.40;;;3.20;98.20;;;;;;5033320;28;20470;-76
2021/01/23 05:03:57;;;;;;;1.60;1.40;;;3.20;98.20;;;;;;5033369;28;20506;-76
2021/01/23 05:06:24;;;;;;;1.70;1.50;;;3.30;98.20;;;;;;5021248;28;20469;-76
2021/01/23 05:08:51;;;;;;;1.60;1.40;;;3.30;98.20;;;;;;5031075;28;20475;-76
2021/01/23 05:11:17;;;;;;;1.67;1.40;;;3.30;98.20;;;;;;5028848;28;20478;-76
2021/01/23 05:14:08;;;;;;;1.63;1.43;;;3.30;98.20;;;;;;5031171;28;20553;-76
2021/01/23 05:16:34;;;;;;;1.63;1.33;;;3.30;98.20;;;;;;5028404;28;20463;-76
2021/01/23 05:19:02;;;;;;;1.60;1.33;;;3.30;98.20;;;;;;5030212;28;20467;-77
2021/01/23 05:21:29;;;;;;;1.60;1.40;;;3.30;98.20;;;;;;5031273;28;20463;-77
2021/01/23 05:24:19;;;;;;;1.70;1.40;;;3.30;98.20;;;;;;5034095;28;20474;-78
2021/01/23 05:26:55;;;;;;;1.60;1.40;;;3.30;98.20;;;;;;5028328;28;20544;-78
2021/01/23 05:29:22;;;;;;;1.60;1.40;;;3.40;98.20;;;;;;5034263;28;20479;-75
2021/01/23 05:32:15;;;;;;;1.70;1.37;;;3.40;98.20;;;;;;5034984;28;20463;-77
2021/01/23 05:34:42;;;;;;;1.63;1.30;;;3.50;98.20;;;;;;5031751;28;20521;-78
2021/01/23 05:37:09;;;;;;;1.67;1.40;;;3.50;98.20;;;;;;5034509;28;20466;-77
2021/01/23 05:39:48;;;;;;;1.67;1.40;;;3.50;98.20;;;;;;5034463;28;20518;-77
2021/01/23 05:42:15;;;;;;;1.70;1.40;;;3.60;98.20;;;;;;5034785;28;20463;-78
2021/01/23 05:44:42;;;;;;;1.70;1.50;;;3.60;98.20;;;;;;5031546;28;20497;-77
2021/01/23 05:47:29;;;;;;;1.60;1.33;;;3.50;98.20;;;;;;5033620;28;20483;-76
2021/01/23 05:49:57;;;;;;;1.60;1.40;;;3.50;98.20;;;;;;5028210;28;21061;-76
2021/01/23 05:52:23;;;;;;;1.70;1.60;;;3.50;98.20;;;;;;5035916;28;21175;-78
2021/01/23 05:54:50;;;;;;;1.63;1.40;;;3.50;98.20;;;;;;5035656;28;20455;-77
2021/01/23 05:57:17;;;;;;;1.60;1.30;;;3.50;98.20;;;;;;5036803;28;20509;-77
2021/01/23 05:59:44;;;;;;;2.93;2.73;;;3.40;98.20;;;;;;5037650;28;20502;-76
2021/01/23 06:02:12;;;;;;;1.60;1.30;;;3.40;98.20;;;;;;5040373;28;20486;-77
2021/01/23 06:04:42;;;;;;;1.70;1.40;;;3.30;98.20;;;;;;5038621;28;20467;-77
2021/01/23 06:07:10;;;;;;;1.60;1.40;;;3.30;98.20;;;;;;5036047;28;20458;-79
2021/01/23 06:09:38;;;;;;;1.60;1.40;;;3.40;98.20;;;;;;5039516;28;20506;-76
2021/01/23 06:12:25;;;;;;;1.60;1.40;;;3.40;98.20;;;;;;5038219;28;20463;-78
2021/01/23 06:14:52;;;;;;;1.60;1.40;;;3.40;98.20;;;;;;5033601;28;20463;-78
2021/01/23 06:17:47;;;;;;;1.67;1.40;;;3.50;98.20;;;;;;5033334;28;20474;-78
2021/01/23 06:20:47;;;;;;;1.60;1.30;;;3.50;98.20;;;;;;5035697;28;20482;-77
2021/01/23 06:23:16;;;;;;;1.70;1.50;;;3.40;98.20;;;;;;5029769;28;20506;-75
2021/01/23 06:26:02;;;;;;;1.67;1.43;;;3.40;98.20;;;;;;5035012;28;20518;-76
2021/01/23 06:28:50;;;;;;;1.70;1.40;;;3.50;98.20;;;;;;5037467;28;20491;-76
2021/01/23 06:31:34;;;;;;;1.70;1.50;;;3.50;98.20;;;;;;5037021;28;20539;-75
2021/01/23 06:34:01;;;;;;;1.63;1.37;;;3.50;98.20;;;;;;5001463;28;20507;-75
2021/01/23 06:36:29;;;;;;;1.60;1.33;;;3.50;98.20;;;;;;5018336;28;20468;-75
2021/01/23 06:39:11;;;;;;;1.63;1.40;;;3.50;98.20;;;;;;5014054;28;20948;-76
2021/01/23 06:41:39;;;;;;;1.60;1.40;;;3.50;98.20;;;;;;5002803;28;20483;-74
2021/01/23 06:44:15;;;;;;;1.60;1.40;;;3.50;98.20;;;;;;5011088;28;20943;-77
2021/01/23 06:46:43;;;;;;;1.67;1.40;;;3.50;98.20;;;;;;5010869;28;20459;-77
2021/01/23 06:49:12;;;;;;;1.60;1.30;;;3.50;98.20;;;;;;5331494;23;20541;-75
2021/01/23 06:51:39;;;;;;;1.60;1.50;;;3.50;98.20;;;;;;4988606;28;20543;-75
2021/01/23 06:54:14;;;;;;;1.80;1.70;;;3.60;98.20;;;;;;4981514;28;20473;-76
2021/01/23 06:56:42;;;;;;;1.60;1.50;;;3.60;98.20;;;;;;4973884;28;20932;-76
2021/01/23 06:59:21;;;;;;;1.67;1.50;;;3.60;98.20;;;;;;4971239;28;20962;-76
2021/01/23 07:01:58;;;;;;;1.70;1.53;;;3.70;98.20;;;;;;4971647;28;20464;-76
2021/01/23 07:04:25;;;;;;;1.60;1.30;;;3.70;98.20;;;;;;4992948;28;20492;-76
2021/01/23 07:06:53;;;;;;;1.63;1.40;;;3.70;98.20;;;;;;4989487;28;20485;-76
2021/01/23 07:09:20;;;;;;;1.70;1.50;;;3.70;98.20;;;;;;4989806;28;21035;-76
2021/01/23 07:11:47;;;;;;;1.60;1.40;;;3.80;98.20;;;;;;4987673;28;20462;-76
2021/01/23 07:14:13;;;;;;;1.60;1.30;;;3.80;98.20;;;;;;4983998;28;20486;-76
2021/01/23 07:16:52;;;;;;;1.67;1.40;;;3.90;98.20;;;;;;4986530;28;20484;-76
2021/01/23 07:19:18;;;;;;;1.60;1.30;;;3.90;98.20;;;;;;4989514;28;20492;-76
2021/01/23 07:21:46;;;;;;;1.70;1.50;;;3.90;98.20;;;;;;4985844;28;20496;-76
2021/01/23 07:24:13;;;;;;;1.70;1.60;;;4.00;98.20;;;;;;4977899;28;20476;-76
2021/01/23 07:26:41;;;;;;;1.70;1.40;;;4.10;98.20;;;;;;4977968;28;20527;-76
2021/01/23 07:29:09;;;;;;;1.60;1.30;;;4.10;98.20;;;;;;4977971;28;20525;-76
2021/01/23 07:31:35;;;;;;;1.60;1.33;;;4.10;98.20;;;;;;4977978;28;20470;-77
2021/01/23 07:34:10;;;;;;;1.70;1.40;;;4.20;98.20;;;;;;4981617;28;20482;-76
2021/01/23 07:36:38;;;;;;;1.63;1.40;;;4.20;98.20;;;;;;4987833;28;20461;-76
2021/01/23 07:39:08;;;;;;;1.70;1.40;;;4.20;98.20;;;;;;4980453;28;20478;-76
2021/01/23 07:41:35;;;;;;;1.63;1.30;;;4.20;98.20;;;;;;4978416;28;20462;-76
2021/01/23 07:44:05;;;;;;;1.60;1.30;;;4.10;98.20;;;;;;4989074;28;20454;-76
2021/01/23 07:46:37;;;;;;;1.70;1.30;;;4.10;98.20;;;;;;4977853;28;20458;-77
2021/01/23 07:49:04;;;;;;;1.60;1.30;;;4.10;98.20;;;;;;4978737;28;20492;-76
2021/01/23 07:51:31;;;;;;;4.67;4.30;;;4.10;98.20;;;;;;4977779;28;20693;-76
2021/01/23 07:54:11;;;;;;;1.60;1.30;;;4.10;98.20;;;;;;4980849;28;20472;-76
2021/01/23 07:56:38;;;;;;;1.70;1.50;;;4.10;98.20;;;;;;4987759;28;20477;-76
2021/01/23 07:59:06;;;;;;;1.60;1.30;;;4.10;98.20;;;;;;4989954;28;20660;-76
2021/01/23 08:01:32;;;;;;;1.67;1.40;;;4.10;98.20;;;;;;4984815;28;20481;-76
2021/01/23 08:03:59;;;;;;;1.70;1.40;;;4.20;98.20;;;;;;4976058;28;20497;-76
2021/01/23 08:06:26;;;;;;;1.60;1.30;;;4.20;98.20;;;;;;4975223;28;20482;-76
2021/01/23 08:08:53;;;;;;;1.67;1.30;;;4.20;98.20;;;;;;4973828;28;20773;-76
2021/01/23 08:11:38;;;;;;;1.70;1.40;;;4.20;98.20;;;;;;4975152;28;20497;-76
2021/01/23 08:14:10;;;;;;;1.60;1.40;;;4.20;98.20;;;;;;4974094;28;20466;-76
2021/01/23 08:16:49;;;;;;;2.90;2.70;;;4.20;98.20;;;;;;4975836;28;20489;-77
2021/01/23 08:19:16;;;;;;;1.67;1.40;;;4.30;98.20;;;;;;4981427;28;20477;-76
2021/01/23 08:21:43;;;;;;;1.60;1.40;;;4.30;98.20;;;;;;4976508;28;20841;-76
2021/01/23 08:24:27;;;;;;;1.60;1.40;;;4.40;98.20;;;;;;4978288;28;20462;-76
2021/01/23 08:26:53;;;;;;;1.67;1.30;;;4.50;98.20;;;;;;4976276;28;20977;-77
2021/01/23 08:29:21;;;;;;;1.63;1.33;;;4.60;98.20;;;;;;4974566;28;20514;-76
2021/01/23 08:32:00;;;;;;;1.63;1.40;;;4.70;98.20;;;;;;4974614;28;20505;-76
2021/01/23 08:34:27;;;;;;;1.60;1.40;;;4.80;98.20;;;;;;4984675;28;20446;-76
2021/01/23 08:36:53;;;;;;;1.67;1.30;;;4.80;98.20;;;;;;4987213;28;20477;-77
2021/01/23 08:39:19;;;;;;;1.60;1.30;;;4.80;98.20;;;;;;4989768;28;20481;-76
2021/01/23 08:41:46;;;;;;;1.60;1.40;;;4.80;98.20;;;;;;4989118;28;20458;-76
2021/01/23 08:44:12;;;;;;;1.67;1.40;;;4.90;98.20;;;;;;4969272;28;20486;-75
2021/01/23 08:46:40;;;;;;;1.70;1.40;;;4.90;98.20;;;;;;4972250;28;20497;-76
2021/01/23 08:49:06;;;;;;;1.63;1.40;;;4.90;98.20;;;;;;4974971;28;20521;-76
2021/01/23 08:51:33;;;;;;;1.67;1.40;;;4.90;98.20;;;;;;4972310;28;20473;-76
2021/01/23 08:54:01;;;;;;;1.67;1.40;;;4.90;98.20;;;;;;4977665;28;20498;-76
2021/01/23 08:56:28;;;;;;;1.63;1.40;;;4.90;98.20;;;;;;4989515;28;20753;-76
2021/01/23 08:58:54;;;;;;;1.63;1.50;;;4.80;98.20;;;;;;4985666;28;20500;-76
2021/01/23 09:01:21;;;;;;;1.60;1.30;;;4.80;98.20;;;;;;4984896;28;20485;-76
2021/01/23 09:03:48;;;;;;;1.60;1.30;;;4.80;98.20;;;;;;4986885;28;20710;-76
2021/01/23 09:06:14;;;;;;;1.63;1.30;;;4.80;98.20;;;;;;4989604;28;20485;-76
2021/01/23 09:08:41;;;;;;;1.60;1.33;;;4.80;98.20;;;;;;4987917;28;20469;-76
2021/01/23 09:11:07;;;;;;;1.70;1.40;;;4.80;98.20;;;;;;4984212;28;20490;-75
2021/01/23 09:13:33;;;;;;;1.60;1.40;;;4.80;98.20;;;;;;4983231;28;21103;-76
2021/01/23 09:16:00;;;;;;;1.60;1.30;;;4.80;98.20;;;;;;4987636;28;20457;-75
2021/01/23 09:18:26;;;;;;;1.60;1.30;;;4.90;98.20;;;;;;4982052;28;20461;-75
2021/01/23 09:20:54;;;;;;;1.63;1.33;;;5.00;98.20;;;;;;4985513;28;20796;-75
2021/01/23 09:23:20;;;;;;;1.67;1.37;;;5.10;98.20;;;;;;4987330;28;20876;-75
2021/01/23 09:25:47;;;;;;;1.63;1.40;;;5.20;98.20;;;;;;4983639;28;20501;-76
2021/01/23 09:28:14;;;;;;;1.67;1.40;;;5.20;98.20;;;;;;4985041;28;20474;-75
2021/01/23 09:30:42;;;;;;;1.60;1.33;;;5.30;98.20;;;;;;4975805;28;20596;-75
2021/01/23 09:33:09;;;;;;;1.70;1.40;;;5.40;98.20;;;;;;4973946;28;20470;-75
2021/01/23 09:35:35;;;;;;;1.70;1.50;;;5.40;98.20;;;;;;4982708;28;20465;-75
2021/01/23 09:38:03;;;;;;;1.63;1.30;;;5.50;98.20;;;;;;4990139;28;20470;-75
2021/01/23 09:43:54;;;;;;;1.60;1.30;;;5.60;98.20;;;;;;4977481;28;20465;-75
2021/01/23 09:46:21;;;;;;;1.67;1.37;;;5.60;98.20;;;;;;4983513;28;20517;-75
2021/01/23 09:48:48;;;;;;;1.63;1.30;;;5.70;98.20;;;;;;4987695;28;20536;-75
2021/01/23 09:51:15;;;;;;;1.60;1.27;;;5.70;98.20;;;;;;4991279;28;20905;-75
2021/01/23 09:53:42;;;;;;;1.60;1.30;;;5.80;98.20;;;;;;4978444;28;20466;-76
2021/01/23 09:56:09;;;;;;;1.60;1.30;;;5.80;98.20;;;;;;4986914;28;20473;-74
2021/01/23 09:58:35;;;;;;;1.60;1.30;;;6.00;98.20;;;;;;4984009;28;20481;-75
2021/01/23 10:01:02;;;;;;;1.60;1.30;;;6.00;98.20;;;;;;4976211;28;20795;-75
2021/01/23 10:03:28;;;;;;;1.60;1.30;;;6.10;98.20;;;;;;4975664;28;20498;-73
2021/01/23 10:05:54;;;;;;;1.60;1.30;;;6.20;98.20;;;;;;4977567;28;20583;-74
2021/01/23 10:08:21;;;;;;;2.87;2.67;;;6.20;98.20;;;;;;4972564;28;20532;-77
2021/01/23 10:10:48;;;;;;;1.60;1.27;;;6.20;98.20;;;;;;4970917;28;20498;-77
2021/01/23 10:13:15;;;;;;;1.60;1.20;;;6.20;98.20;;;;;;4970625;28;20488;-75
2021/01/23 10:15:41;;;;;;;1.63;1.33;;;6.30;98.20;;;;;;4969338;28;20577;-76
2021/01/23 10:18:08;;;;;;;1.60;1.23;;;6.30;98.20;;;;;;4971489;28;20945;-77
2021/01/23 10:20:36;;;;;;;1.60;1.30;;;6.40;98.20;;;;;;4981372;28;20515;-74
2021/01/23 10:23:03;;;;;;;1.60;1.23;;;6.40;98.20;;;;;;4976807;28;20469;-77
2021/01/23 10:25:30;;;;;;;1.60;1.20;;;6.40;98.20;;;;;;4971658;28;20525;-77
2021/01/23 10:28:00;;;;;;;1.60;1.27;;;6.40;98.20;;;;;;4973089;28;20496;-76
2021/01/23 10:30:27;;;;;;;1.60;1.30;;;6.40;98.20;;;;;;4970718;28;20548;-76
2021/01/23 10:32:58;;;;;;;1.60;1.20;;;6.50;98.20;;;;;;4975000;28;20473;-77
2021/01/23 10:35:25;;;;;;;1.60;1.20;;;6.50;98.20;;;;;;4970995;28;20466;-77
2021/01/23 10:37:51;;;;;;;1.60;1.27;;;6.60;98.20;;;;;;4972141;28;20905;-76
2021/01/23 10:40:18;;;;;;;1.60;1.27;;;6.60;98.20;;;;;;4978540;28;20517;-77
2021/01/23 10:42:44;;;;;;;1.60;1.20;;;6.60;98.20;;;;;;4973342;28;20473;-77
2021/01/23 10:45:12;;;;;;;1.60;1.30;;;6.60;98.20;;;;;;4973393;28;21042;-77
2021/01/23 10:47:39;;;;;;;1.60;1.20;;;6.70;98.20;;;;;;4971902;28;21048;-76
2021/01/23 10:50:07;;;;;;;1.83;1.63;;;6.70;98.20;;;;;;4980670;28;20551;-75
2021/01/23 10:52:34;;;;;;;1.60;1.20;;;6.80;98.20;;;;;;4969580;28;20886;-76
2021/01/23 10:55:01;;;;;;;1.60;1.30;;;6.90;98.20;;;;;;4967843;28;20462;-75
2021/01/23 10:57:27;;;;;;;1.67;1.37;;;7.00;98.20;;;;;;4968958;28;20564;-76
2021/01/23 10:59:54;;;;;;;1.60;1.20;;;7.00;98.20;;;;;;4967954;28;20966;-76
2021/01/23 11:02:21;;;;;;;1.60;1.20;;;7.00;98.20;;;;;;4968655;28;20463;-76
2021/01/23 11:04:48;;;;;;;1.60;1.30;;;7.00;98.20;;;;;;4965026;28;20996;-76
2021/01/23 11:07:14;;;;;;;1.60;1.30;;;6.90;98.20;;;;;;4966480;28;20480;-76
2021/01/23 11:09:40;;;;;;;1.60;1.30;;;6.90;98.20;;;;;;4972312;28;20489;-76
2021/01/23 11:12:08;;;;;;;1.60;1.20;;;6.90;98.20;;;;;;4976267;28;20569;-76
2021/01/23 11:14:35;;;;;;;1.60;1.20;;;6.90;98.20;;;;;;4972776;28;20527;-75
2021/01/23 11:17:02;;;;;;;1.60;1.20;;;6.90;98.20;;;;;;4971401;28;20831;-76
2021/01/23 11:19:29;;;;;;;1.60;1.20;;;7.00;98.20;;;;;;4974004;28;20496;-74
2021/01/23 11:21:56;;;;;;;1.60;1.20;;;7.10;98.20;;;;;;4973270;28;20501;-76
2021/01/23 11:24:22;;;;;;;1.60;1.20;;;7.20;98.20;;;;;;4975851;28;20523;-78
2021/01/23 11:26:49;;;;;;;1.67;1.30;;;7.30;98.20;;;;;;4972380;28;20506;-77
2021/01/23 11:29:16;;;;;;;1.60;1.20;;;7.50;98.20;;;;;;4975083;28;20512;-75
2021/01/23 11:31:42;;;;;;;1.60;1.20;;;7.50;98.00;;;;;;4972642;28;20529;-75
2021/01/23 11:34:09;;;;;;;1.63;1.27;;;7.50;97.60;;;;;;4970313;28;20521;-76
2021/01/23 11:36:36;;;;;;;1.60;1.20;;;7.40;96.90;;;;;;4972926;28;20826;-77
2021/01/23 11:39:03;;;;;;;1.60;1.20;;;7.30;96.60;;;;;;4972920;28;20513;-77
2021/01/23 11:41:30;;;;;;;1.60;1.20;;;7.30;97.50;;;;;;4975740;28;20494;-75
2021/01/23 11:43:56;;;;;;;1.60;1.20;;;7.30;98.00;;;;;;4966837;28;20497;-77
2021/01/23 11:46:23;;;;;;;1.60;1.20;;;7.20;97.80;;;;;;4969689;28;20569;-76
2021/01/23 11:48:49;;;;;;;1.60;1.20;;;7.20;97.80;;;;;;4972803;28;20673;-77
2021/01/23 11:51:16;;;;;;;1.60;1.10;;;7.10;98.20;;;;;;4976185;28;20497;-76
2021/01/23 11:53:43;;;;;;;1.60;1.20;;;7.10;98.00;;;;;;4969507;28;20686;-75
2021/01/23 11:56:09;;;;;;;1.60;1.23;;;7.20;98.20;;;;;;4976556;28;20552;-76
2021/01/23 11:58:36;;;;;;;1.60;1.20;;;7.20;98.20;;;;;;4973026;28;20557;-77
2021/01/23 12:01:03;;;;;;;1.60;1.30;;;7.20;98.00;;;;;;4966642;28;20501;-77
2021/01/23 12:03:29;;;;;;;1.60;1.20;;;7.30;98.20;;;;;;4967786;28;20501;-74
2021/01/23 12:05:56;;;;;;;1.60;1.20;;;7.40;98.20;;;;;;4969856;28;20497;-74
2021/01/23 12:08:22;;;;;;;1.63;1.30;;;7.50;98.10;;;;;;4971008;28;21177;-76
2021/01/23 12:10:50;;;;;;;1.60;1.20;;;7.50;97.20;;;;;;4969786;28;20518;-76
2021/01/23 12:13:19;;;;;;;1.60;1.10;;;7.60;96.60;;;;;;4970369;28;21354;-77
2021/01/23 12:15:45;;;;;;;1.60;1.20;;;7.70;95.50;;;;;;4972512;28;20755;-73
2021/01/23 12:18:12;;;;;;;1.60;1.20;;;7.80;95.40;;;;;;4969836;28;20555;-75
2021/01/23 12:20:38;;;;;;;1.60;1.20;;;7.80;95.60;;;;;;4970568;28;20496;-75
2021/01/23 12:23:05;;;;;;;1.60;1.20;;;7.80;95.20;;;;;;4971403;28;20489;-76
2021/01/23 12:25:31;;;;;;;1.60;1.20;;;7.80;95.10;;;;;;4975971;28;20517;-75
2021/01/23 12:27:59;;;;;;;1.60;1.20;;;7.90;94.50;;;;;;4968815;28;20508;-75
2021/01/23 12:30:25;;;;;;;1.60;1.20;;;7.80;95.00;;;;;;4969237;28;20510;-75
2021/01/23 12:32:51;;;;;;;1.60;1.10;;;7.90;95.30;;;;;;4970647;28;20501;-74
2021/01/23 12:35:18;;;;;;;1.60;1.20;;;7.90;94.70;;;;;;4965608;28;20490;-76
2021/01/23 12:37:45;;;;;;;1.60;1.10;;;7.90;94.30;;;;;;4974213;28;21003;-75
2021/01/23 12:40:13;;;;;;;1.60;1.10;;;7.90;95.00;;;;;;4967111;28;20573;-75
2021/01/23 12:42:40;;;;;;;1.60;1.10;;;7.90;92.40;;;;;;4978241;28;20489;-75
2021/01/23 12:45:10;;;;;;;1.60;1.20;;;7.90;91.70;;;;;;4968598;28;20486;-76
2021/01/23 12:47:37;;;;;;;1.60;1.13;;;7.90;91.90;;;;;;4965900;28;20494;-75
2021/01/23 12:50:05;;;;;;;1.60;1.20;;;7.90;90.80;;;;;;4975479;28;20528;-74
2021/01/23 12:52:32;;;;;;;1.60;1.10;;;7.80;90.90;;;;;;4971175;28;20498;-75
2021/01/23 12:54:58;;;;;;;1.60;1.30;;;7.80;90.90;;;;;;4965534;28;20505;-74
2021/01/23 12:57:25;;;;;;;1.60;1.20;;;7.80;91.20;;;;;;4968710;28;20498;-76
2021/01/23 12:59:51;;;;;;;1.60;1.20;;;7.90;91.50;;;;;;4968378;28;21209;-74
2021/01/23 13:02:18;;;;;;;2.30;1.50;;;8.10;90.40;;;;;;4964432;28;20549;-75
2021/01/23 13:04:45;;;;;;;1.60;1.20;;;8.20;90.50;;;;;;4964148;28;20546;-76
2021/01/23 13:07:11;;;;;;;1.60;1.10;;;8.40;89.10;;;;;;4966899;28;20565;-76
2021/01/23 13:09:38;;;;;;;1.60;1.20;;;8.50;89.00;;;;;;4964475;28;21064;-75